Date,TemperatureHighF,TemperatureAvgF,TemperatureLowF,DewpointHighF,DewpointAvgF,DewpointLowF,HumidityHigh,HumidityAvg,HumidityLow,PressureMaxIn,PressureMinIn,WindSpeedMaxMPH,WindSpeedAvgMPH,GustSpeedMaxMPH,PrecipitationSumIn
2013-11-1,85.4,76.3,73.5,77.2,72.7,71.3,95,89,66,29.81,29.70,4,0,13,0.63
2013-11-2,87.0,78.5,72.3,75.8,73.0,70.8,95,84,64,29.81,29.71,6,1,15,0.01
2013-11-3,86.4,80.2,76.3,74.0,71.1,68.2,86,74,60,29.81,29.70,8,1,16,0.00
2013-11-4,87.7,78.2,73.3,75.2,72.5,70.4,93,83,61,29.79,29.70,2,0,10,0.16
2013-11-5,88.5,78.0,72.7,76.3,72.6,69.1,94,85,53,29.79,29.69,5,0,13,0.80
2013-11-6,87.5,77.7,72.2,75.4,72.1,69.8,95,84,56,29.80,29.71,7,0,13,0.04
2013-11-7,89.0,77.8,71.4,75.0,71.6,68.5,93,83,52,29.80,29.71,6,0,16,0.13
2013-11-8,87.8,79.3,71.6,74.3,72.0,69.2,94,80,55,29.83,29.72,3,0,12,0.00
2013-11-9,87.3,78.6,73.3,77.0,72.9,70.8,93,83,61,29.87,29.78,6,0,13,1.04
2013-11-10,87.3,79.7,72.7,74.5,72.4,70.0,94,80,61,29.89,29.79,5,1,17,0.01
2013-11-11,87.4,79.8,73.3,77.4,72.9,70.8,93,80,62,29.91,29.82,6,1,18,0.21
2013-11-12,89.7,81.2,74.0,75.2,72.9,69.6,94,77,53,29.88,29.76,7,2,16,0.01
2013-11-13,88.9,81.3,74.0,76.5,71.5,67.8,92,73,51,29.86,29.75,8,2,18,0.00
2013-11-14,86.5,79.5,72.3,74.4,71.6,69.5,92,78,59,29.89,29.78,6,1,12,0.04
2013-11-15,85.3,78.1,74.8,75.0,73.2,71.1,94,86,64,29.89,29.80,4,0,11,0.16
2013-11-16,86.2,79.5,73.7,75.5,72.5,70.7,95,80,60,29.84,29.74,2,0,11,0.02
2013-11-17,85.7,79.5,75.3,74.3,69.9,64.8,92,74,51,29.79,29.68,3,0,14,0.40
2013-11-18,84.6,76.8,73.5,73.2,68.1,-99.9,93,78,56,29.74,29.63,2,0,10,0.41
2013-11-19,83.0,70.7,71.1,74.1,58.0,-99.9,94,82,62,29.79,29.60,2,0,6,0.30
2013-11-20,84.6,76.7,69.8,72.7,67.6,-99.9,93,77,56,29.88,29.77,4,0,12,0.00
2013-11-21,82.3,75.3,73.5,74.9,69.6,-99.9,95,88,70,29.91,29.82,4,0,10,2.40
2013-11-22,74.5,44.7,73.0,73.0,4.5,-99.9,100,97,94,29.86,29.81,19,8,242,0.84
2013-11-23,-200.0,0.0,200.0,-99.9,-99.9,-99.9,100,100,100,3.33,3.33,19,19,242,0.92
2013-11-24,-200.0,0.0,200.0,-99.9,-99.9,-99.9,100,100,100,3.33,3.33,19,19,242,0.96
2013-11-25,-200.0,0.0,200.0,-99.9,-99.9,-99.9,100,100,100,3.33,3.33,19,19,242,0.60
2013-11-26,-200.0,0.0,200.0,-99.9,-99.9,-99.9,100,100,100,3.33,3.33,19,19,242,0.20
2013-11-27,-200.0,0.0,200.0,-99.9,-99.9,-99.9,100,100,100,3.33,3.33,19,19,242,0.84
2013-11-28,-200.0,0.0,200.0,-99.9,-99.9,-99.9,100,100,100,0.00,40.00,19,19,242,0.00